createdAt,value
2024-03-27T00:00:48.426Z,60.86
2024-03-27T00:01:48.523Z,59.02
2024-03-27T00:02:48.636Z,62.25
2024-03-27T00:03:48.736Z,60.69
2024-03-27T00:57:59.114Z,60.47
2024-03-27T00:58:49.097Z,69.60
2024-03-27T00:59:49.101Z,101.87
2024-03-27T01:00:49.089Z,146.09
2024-03-27T01:01:49.111Z,195.88
2024-03-27T01:02:49.111Z,250.11
2024-03-27T01:03:49.108Z,184.99
2024-03-27T01:04:49.108Z,171.85
2024-03-27T01:05:49.101Z,158.59
2024-03-27T01:06:49.110Z,147.86
2024-03-27T01:07:49.205Z,138.36
2024-03-27T01:08:49.237Z,131.57
2024-03-27T01:09:49.301Z,122.80
2024-03-27T01:10:49.376Z,119.45
2024-03-27T01:11:49.440Z,113.02
2024-03-27T01:12:49.513Z,106.31
2024-03-27T01:13:49.628Z,103.50
2024-03-27T01:14:49.643Z,99.85
2024-03-27T01:15:49.717Z,95.17
2024-03-27T01:16:49.786Z,90.99
2024-03-27T01:17:49.850Z,90.59
2024-03-27T01:18:49.917Z,88.33
2024-03-27T01:19:50.007Z,85.70
2024-03-27T01:20:50.175Z,84.49
2024-03-27T01:21:50.159Z,82.59
2024-03-27T01:22:50.203Z,79.69
2024-03-27T01:23:50.256Z,78.35
2024-03-27T01:24:50.328Z,77.52
2024-03-27T01:25:50.397Z,74.79
2024-03-27T01:26:50.466Z,74.10
2024-03-27T01:27:50.532Z,73.27
2024-03-27T01:28:50.595Z,72.40
2024-03-27T01:29:50.691Z,71.57
2024-03-27T01:30:50.735Z,70.53
2024-03-27T01:31:50.806Z,70.58
2024-03-27T01:32:50.873Z,68.40
2024-03-27T01:33:50.945Z,66.66
2024-03-27T01:34:51.016Z,65.69
2024-03-27T01:35:51.084Z,67.53
2024-03-27T01:36:51.149Z,66.15
2024-03-27T01:37:51.213Z,65.47
2024-03-27T01:38:51.276Z,64.38
2024-03-27T01:39:51.351Z,64.36
2024-03-27T01:40:51.404Z,64.82
2024-03-27T01:41:51.479Z,64.40
2024-03-27T01:42:51.549Z,61.89
2024-03-27T01:43:51.614Z,62.19
2024-03-27T01:44:51.683Z,62.19
2024-03-27T01:45:51.765Z,61.33
2024-03-27T01:46:51.812Z,60.75
2024-03-27T01:47:51.886Z,59.96
2024-03-27T01:48:51.947Z,59.93
2024-03-27T01:49:52.019Z,59.36
2024-03-27T01:50:52.072Z,60.45
2024-03-27T01:51:52.136Z,59.83
2024-03-27T01:52:52.199Z,59.60
2024-03-27T01:53:52.271Z,57.63
2024-03-27T01:54:52.344Z,58.31
2024-03-27T01:55:52.417Z,58.52
2024-03-27T01:56:52.482Z,58.60
2024-03-27T01:57:52.537Z,57.74
2024-03-27T01:58:52.590Z,58.73
2024-03-27T01:59:52.672Z,57.04
2024-03-27T02:00:52.727Z,57.50
2024-03-27T02:01:52.837Z,56.84
2024-03-27T02:02:52.859Z,57.81
2024-03-27T02:03:52.937Z,54.93
2024-03-27T02:04:52.997Z,58.40
2024-03-27T02:05:53.074Z,56.05
2024-03-27T02:06:53.146Z,56.86
2024-03-27T02:07:53.202Z,57.16
2024-03-27T02:08:53.257Z,56.12
2024-03-27T02:09:53.343Z,57.27
2024-03-27T02:10:53.397Z,57.08
2024-03-27T02:11:53.466Z,56.10
2024-03-27T02:12:53.518Z,56.05
2024-03-27T02:13:53.586Z,56.18
2024-03-27T02:14:53.673Z,55.50
2024-03-27T02:15:56.206Z,54.56
2024-03-27T02:16:57.825Z,56.88
2024-03-27T02:17:53.748Z,56.93
2024-03-27T02:18:53.736Z,57.05
2024-03-27T02:19:53.729Z,57.03
2024-03-27T02:20:53.732Z,57.34
2024-03-27T02:21:53.735Z,56.38
2024-03-27T02:22:53.746Z,55.42
2024-03-27T02:23:53.736Z,56.39
2024-03-27T02:24:53.740Z,56.44
2024-03-27T02:25:53.739Z,54.65
2024-03-27T02:26:53.749Z,55.04
2024-03-27T02:27:53.746Z,55.30
2024-03-27T02:28:53.744Z,54.01
2024-03-27T02:29:53.743Z,54.04
2024-03-27T02:30:53.751Z,54.65
2024-03-27T02:31:53.747Z,55.70
2024-03-27T02:32:53.789Z,53.51
2024-03-27T02:33:53.857Z,52.85
2024-03-27T02:34:53.845Z,54.28
2024-03-27T02:35:53.843Z,53.98
2024-03-27T02:36:53.850Z,53.66
2024-03-27T02:37:53.840Z,52.17
2024-03-27T02:38:53.852Z,53.81
2024-03-27T02:39:53.846Z,52.93
2024-03-27T02:40:53.842Z,52.73
2024-03-27T02:41:53.839Z,53.41
2024-03-27T02:42:53.857Z,53.90
2024-03-27T02:43:53.841Z,52.75
2024-03-27T02:44:54.659Z,52.56
2024-03-27T02:45:53.938Z,52.89
2024-03-27T02:46:54.661Z,53.08
2024-03-27T02:47:54.037Z,52.72
2024-03-27T02:48:54.090Z,52.63
2024-03-27T02:49:54.178Z,53.82
2024-03-27T02:50:54.202Z,53.27
2024-03-27T02:51:54.242Z,52.48
2024-03-27T02:52:54.279Z,52.85
2024-03-27T02:53:54.324Z,52.74
2024-03-27T02:54:54.376Z,51.49
2024-03-27T02:55:54.478Z,52.77
2024-03-27T02:56:54.590Z,53.70
2024-03-27T02:57:54.690Z,53.21
2024-03-27T02:58:54.798Z,53.48
2024-03-27T02:59:54.881Z,54.17
2024-03-27T03:00:55.258Z,52.62
2024-03-27T03:01:55.083Z,52.00
2024-03-27T03:02:55.181Z,51.96
2024-03-27T03:03:55.278Z,53.29
2024-03-27T03:04:55.364Z,51.04
2024-03-27T03:05:55.482Z,51.13
2024-03-27T03:06:55.579Z,52.47
2024-03-27T03:07:55.697Z,52.00
2024-03-27T03:08:55.815Z,53.25
2024-03-27T03:09:55.921Z,51.79
2024-03-27T03:10:56.054Z,52.49
2024-03-27T03:11:56.158Z,52.16
2024-03-27T03:12:56.270Z,50.82
2024-03-27T03:13:56.395Z,52.06
2024-03-27T03:14:56.521Z,52.92
2024-03-27T03:15:56.644Z,51.87
2024-03-27T03:16:56.752Z,53.36
2024-03-27T03:17:56.871Z,51.85
2024-03-27T03:18:56.984Z,52.80
2024-03-27T03:19:57.110Z,51.91
2024-03-27T03:20:57.248Z,54.13
2024-03-27T03:21:57.313Z,52.31
2024-03-27T03:22:57.465Z,51.18
2024-03-27T03:23:57.553Z,52.34
2024-03-27T03:24:57.674Z,51.41
2024-03-27T03:25:57.789Z,51.78
2024-03-27T03:26:57.926Z,51.83
2024-03-27T03:27:58.020Z,52.65
2024-03-27T03:28:58.142Z,51.97
2024-03-27T03:29:58.249Z,51.71
2024-03-27T03:30:58.369Z,51.49
2024-03-27T03:31:58.481Z,52.62
2024-03-27T03:32:58.580Z,51.14
2024-03-27T03:33:58.700Z,51.40
2024-03-27T03:34:58.823Z,52.70
2024-03-27T03:35:58.934Z,52.76
2024-03-27T03:36:59.075Z,52.10
2024-03-27T03:37:59.173Z,51.45
2024-03-27T03:38:59.271Z,51.16
2024-03-27T03:39:59.381Z,52.33
2024-03-27T03:40:59.495Z,51.04
2024-03-27T03:41:59.710Z,53.09
2024-03-27T03:42:59.714Z,52.86
2024-03-27T03:43:59.832Z,54.21
2024-03-27T03:44:59.947Z,53.48
2024-03-27T03:46:00.060Z,52.03
2024-03-27T03:47:00.177Z,52.93
2024-03-27T03:48:00.335Z,53.23
2024-03-27T03:49:00.395Z,51.77
2024-03-27T03:50:00.508Z,53.79
2024-03-27T03:51:00.616Z,52.42
2024-03-27T03:52:00.731Z,52.42
2024-03-27T03:53:00.882Z,51.29
2024-03-27T03:54:00.943Z,51.40
2024-03-27T03:55:01.063Z,51.53
2024-03-27T03:56:01.169Z,52.11
2024-03-27T03:57:01.334Z,51.92
2024-03-27T03:58:01.378Z,51.78
2024-03-27T03:59:01.487Z,52.80
2024-03-27T04:00:01.602Z,51.81
2024-03-27T04:01:01.702Z,52.19
2024-03-27T04:02:01.818Z,53.52
2024-03-27T04:03:01.939Z,52.09
2024-03-27T04:04:02.081Z,51.70
2024-03-27T04:05:02.160Z,52.79
2024-03-27T04:06:02.268Z,51.86
2024-03-27T04:07:02.440Z,51.38
2024-03-27T04:08:02.477Z,52.41
2024-03-27T04:09:02.603Z,51.70
2024-03-27T04:10:02.691Z,52.60
2024-03-27T04:11:02.833Z,50.88
2024-03-27T04:12:02.905Z,53.07
2024-03-27T04:13:03.018Z,52.20
2024-03-27T04:14:03.130Z,51.64
2024-03-27T04:15:03.245Z,51.95
2024-03-27T04:16:03.359Z,51.56
2024-03-27T04:17:03.472Z,52.82
2024-03-27T04:18:03.576Z,52.33
2024-03-27T04:19:03.680Z,54.17
2024-03-27T04:20:03.794Z,53.08
2024-03-27T04:21:10.826Z,50.00
2024-03-27T04:22:11.822Z,50.00
2024-03-27T04:23:11.855Z,50.00
2024-03-27T04:24:11.883Z,50.00
2024-03-27T04:25:11.926Z,50.00
2024-03-27T04:26:11.895Z,50.60
2024-03-27T04:27:11.854Z,51.69
2024-03-27T04:28:11.849Z,51.05
2024-03-27T04:29:11.861Z,51.64
2024-03-27T04:30:11.846Z,52.26
2024-03-27T04:31:18.879Z,50.00
2024-03-27T04:32:19.873Z,50.00
2024-03-27T04:33:19.874Z,50.00
2024-03-27T04:34:19.883Z,50.00
2024-03-27T04:35:19.877Z,50.00
2024-03-27T04:36:19.866Z,51.47
2024-03-27T04:37:19.874Z,50.40
2024-03-27T04:38:19.874Z,50.75
2024-03-27T04:39:19.894Z,53.55
2024-03-27T04:40:19.886Z,51.98
2024-03-27T04:41:19.879Z,50.68
2024-03-27T04:42:19.883Z,51.18
2024-03-27T04:43:19.879Z,52.15
2024-03-27T04:44:19.868Z,51.69
2024-03-27T04:45:19.888Z,50.80
2024-03-27T04:46:19.884Z,50.32
2024-03-27T04:47:19.973Z,51.24
2024-03-27T04:48:19.936Z,51.76
2024-03-27T04:49:19.924Z,53.40
2024-03-27T04:50:19.936Z,52.19
2024-03-27T04:51:19.929Z,51.75
2024-03-27T04:52:19.940Z,52.78
2024-03-27T04:53:19.994Z,51.95
2024-03-27T04:54:19.987Z,52.05
2024-03-27T04:55:19.987Z,51.92
2024-03-27T04:56:19.978Z,51.19
2024-03-27T04:57:19.987Z,51.96
2024-03-27T04:58:19.980Z,52.01
2024-03-27T04:59:20.038Z,50.96
2024-03-27T05:00:19.977Z,50.65
2024-03-27T05:01:19.979Z,52.46
2024-03-27T05:02:19.981Z,50.00
2024-03-27T05:03:19.985Z,51.24
2024-03-27T05:04:20.001Z,52.22
2024-03-27T05:05:20.017Z,53.13
2024-03-27T05:06:19.984Z,52.58
2024-03-27T05:07:19.984Z,52.21
2024-03-27T05:08:19.992Z,54.43
2024-03-27T05:09:19.993Z,51.44
2024-03-27T05:10:20.001Z,52.44
2024-03-27T05:11:22.988Z,55.50
2024-03-27T05:12:19.998Z,55.55
2024-03-27T05:13:19.984Z,55.39
2024-03-27T05:14:20.004Z,55.62
2024-03-27T05:15:19.995Z,54.91
2024-03-27T05:16:20.005Z,57.16
2024-03-27T05:17:18.997Z,55.58
2024-03-27T05:18:19.993Z,54.15
2024-03-27T05:19:20.007Z,55.24
2024-03-27T05:20:19.999Z,53.10
2024-03-27T05:21:20.002Z,54.46
2024-03-27T05:22:20.005Z,58.46
2024-03-27T05:23:20.041Z,57.41
2024-03-27T05:24:20.132Z,55.30
2024-03-27T05:25:20.242Z,56.86
2024-03-27T05:26:20.328Z,58.28
2024-03-27T05:27:20.450Z,56.00
2024-03-27T05:28:20.528Z,56.54
2024-03-27T05:29:20.621Z,55.59
2024-03-27T05:30:20.725Z,57.95
2024-03-27T05:31:20.820Z,55.57
2024-03-27T05:32:20.916Z,56.90
2024-03-27T05:33:21.021Z,57.28
2024-03-27T05:34:21.120Z,56.52
2024-03-27T05:35:21.204Z,55.75
2024-03-27T05:36:22.073Z,54.37
2024-03-27T05:37:21.313Z,56.06
2024-03-27T05:38:21.328Z,55.71
2024-03-27T05:39:21.360Z,57.31
2024-03-27T05:40:21.362Z,53.41
2024-03-27T05:41:21.371Z,53.09
2024-03-27T05:42:21.362Z,52.84
2024-03-27T05:43:21.519Z,55.40
2024-03-27T05:44:22.008Z,55.17
2024-03-27T05:45:21.522Z,50.00
2024-03-27T05:46:21.516Z,55.81
2024-03-27T05:47:21.531Z,55.85
2024-03-27T05:48:21.536Z,55.46
2024-03-27T05:49:21.553Z,56.24
2024-03-27T05:50:21.563Z,53.01
2024-03-27T05:51:21.649Z,52.45
2024-03-27T05:52:21.742Z,57.79
2024-03-27T05:53:21.837Z,54.76
2024-03-27T05:54:21.928Z,57.34
2024-03-27T05:55:22.017Z,56.46
2024-03-27T05:56:22.114Z,49.73
2024-03-27T05:57:22.193Z,54.61
2024-03-27T05:58:22.288Z,60.42
2024-03-27T05:59:22.396Z,56.56
2024-03-27T06:00:22.468Z,60.52
2024-03-27T06:01:22.558Z,57.02
2024-03-27T06:02:22.714Z,57.37
2024-03-27T06:03:22.746Z,56.71
2024-03-27T06:04:22.816Z,51.58
2024-03-27T06:05:22.918Z,55.55
2024-03-27T06:06:23.002Z,59.46
2024-03-27T06:07:23.094Z,54.55
2024-03-27T06:08:23.185Z,55.33
2024-03-27T06:09:23.276Z,58.08
2024-03-27T06:10:23.359Z,59.35
2024-03-27T06:11:23.573Z,59.14
2024-03-27T06:12:23.547Z,57.55
2024-03-27T06:13:23.618Z,54.04
2024-03-27T06:14:23.711Z,55.40
2024-03-27T06:15:23.808Z,53.79
2024-03-27T06:16:23.892Z,61.68
2024-03-27T06:17:23.963Z,57.77
2024-03-27T06:18:27.022Z,53.77
2024-03-27T06:19:24.070Z,53.92
2024-03-27T06:20:24.060Z,54.16
2024-03-27T06:21:24.065Z,55.46
2024-03-27T06:22:25.021Z,57.43
2024-03-27T06:23:24.072Z,57.21
2024-03-27T06:24:24.068Z,62.97
2024-03-27T06:25:24.091Z,55.43
2024-03-27T06:26:24.075Z,60.59
2024-03-27T06:27:24.117Z,55.21
2024-03-27T06:28:24.083Z,54.79
2024-03-27T06:29:24.072Z,57.44
2024-03-27T06:30:24.097Z,56.27
2024-03-27T06:31:27.044Z,60.53
2024-03-27T06:32:24.093Z,58.67
2024-03-27T06:33:24.086Z,58.85
2024-03-27T06:34:25.040Z,60.33
2024-03-27T06:35:24.097Z,59.42
2024-03-27T06:36:24.092Z,57.82
2024-03-27T06:37:24.086Z,63.38
2024-03-27T06:38:24.093Z,60.62
2024-03-27T06:39:24.097Z,57.46
2024-03-27T06:40:24.097Z,58.71
2024-03-27T06:41:24.097Z,57.18
2024-03-27T06:42:24.166Z,53.78
2024-03-27T06:43:24.269Z,54.88
2024-03-27T06:44:24.307Z,56.16
2024-03-27T06:45:26.850Z,54.33
2024-03-27T06:46:24.423Z,53.04
2024-03-27T06:47:24.517Z,55.22
2024-03-27T06:48:24.530Z,55.42
2024-03-27T06:49:24.559Z,55.91
2024-03-27T06:50:24.604Z,58.79
2024-03-27T06:51:24.664Z,52.31
2024-03-27T06:52:24.736Z,60.59
2024-03-27T06:53:24.817Z,55.11
2024-03-27T06:54:24.901Z,57.61
2024-03-27T06:55:24.924Z,54.87
2024-03-27T06:56:24.982Z,60.21
2024-03-27T06:57:25.038Z,57.74
2024-03-27T06:58:25.101Z,53.41
2024-03-27T06:59:25.157Z,55.04
2024-03-27T07:00:25.244Z,62.03
2024-03-27T07:01:26.937Z,54.27
2024-03-27T07:02:25.268Z,54.54
2024-03-27T07:03:25.299Z,55.25
2024-03-27T07:04:25.275Z,56.41
2024-03-27T07:05:25.279Z,55.33
2024-03-27T07:06:25.285Z,57.24
2024-03-27T07:07:27.564Z,57.36
2024-03-27T07:08:25.281Z,57.59
2024-03-27T07:09:25.281Z,57.69
2024-03-27T07:10:25.286Z,58.20
2024-03-27T07:11:25.297Z,58.97
2024-03-27T07:12:27.648Z,55.13
2024-03-27T07:13:25.291Z,57.51
2024-03-27T07:14:26.042Z,57.27
2024-03-27T07:15:25.302Z,59.40
2024-03-27T07:16:25.308Z,59.09
2024-03-27T07:17:25.345Z,61.99
2024-03-27T07:18:25.309Z,57.16
2024-03-27T07:19:25.427Z,58.40
2024-03-27T07:20:28.083Z,61.26
2024-03-27T07:21:25.308Z,58.98
2024-03-27T07:22:25.322Z,56.17
2024-03-27T07:23:25.307Z,60.66
2024-03-27T07:24:25.305Z,64.35
2024-03-27T07:25:25.314Z,57.40
2024-03-27T07:26:27.796Z,59.98
2024-03-27T07:27:25.308Z,60.06
2024-03-27T07:28:25.311Z,60.56
2024-03-27T07:29:26.047Z,60.95
2024-03-27T07:30:25.314Z,63.33
2024-03-27T07:31:25.321Z,59.69
2024-03-27T07:32:25.307Z,58.15
2024-03-27T07:33:25.359Z,60.29
2024-03-27T07:34:25.408Z,57.30
2024-03-27T07:35:25.487Z,63.96
2024-03-27T07:36:25.531Z,59.15
2024-03-27T07:37:25.599Z,56.24
2024-03-27T07:38:25.635Z,57.38
2024-03-27T07:39:25.720Z,56.84
2024-03-27T07:40:25.732Z,58.07
2024-03-27T07:41:25.789Z,60.22
2024-03-27T07:42:25.834Z,58.54
2024-03-27T07:43:25.910Z,57.16
2024-03-27T07:44:25.941Z,55.02
2024-03-27T07:45:25.993Z,58.73
2024-03-27T07:46:26.061Z,55.20
2024-03-27T07:47:27.055Z,57.74
2024-03-27T07:48:26.149Z,56.63
2024-03-27T07:49:26.198Z,61.63
2024-03-27T07:50:26.262Z,57.46
2024-03-27T07:51:26.358Z,60.20
2024-03-27T07:52:26.349Z,61.79
2024-03-27T07:53:27.067Z,56.44
2024-03-27T07:54:26.506Z,60.58
2024-03-27T07:55:26.504Z,63.69
2024-03-27T07:56:26.543Z,57.77
2024-03-27T07:57:26.582Z,58.50
2024-03-27T07:58:26.639Z,58.58
2024-03-27T07:59:26.674Z,59.57
2024-03-27T08:00:26.721Z,59.09
2024-03-27T08:01:26.768Z,58.84
2024-03-27T08:02:26.828Z,57.58
2024-03-27T08:03:26.864Z,59.92
2024-03-27T08:04:26.930Z,60.55
2024-03-27T08:05:26.975Z,57.96
2024-03-27T08:06:27.021Z,56.52
2024-03-27T08:07:27.104Z,58.81
2024-03-27T08:08:27.131Z,61.52
2024-03-27T08:09:27.182Z,57.60
2024-03-27T08:10:27.233Z,59.08
2024-03-27T08:11:27.280Z,57.90
2024-03-27T08:12:27.326Z,59.62
2024-03-27T08:13:27.377Z,58.11
2024-03-27T08:14:27.423Z,58.10
2024-03-27T08:15:27.487Z,57.02
2024-03-27T08:16:27.529Z,55.78
2024-03-27T08:17:27.580Z,58.40
2024-03-27T08:18:27.635Z,56.86
2024-03-27T08:19:27.686Z,58.66
2024-03-27T08:20:27.738Z,59.82
2024-03-27T08:21:27.786Z,57.82
2024-03-27T08:22:27.834Z,57.44
2024-03-27T08:23:27.998Z,57.31
2024-03-27T08:24:27.946Z,57.20
2024-03-27T08:25:27.984Z,58.65
2024-03-27T08:26:28.028Z,59.46
2024-03-27T08:27:28.081Z,58.51
2024-03-27T08:28:28.136Z,57.14
2024-03-27T08:29:28.178Z,56.93
2024-03-27T08:30:28.229Z,57.82
2024-03-27T08:31:28.286Z,57.45
2024-03-27T08:32:28.340Z,58.42
2024-03-27T08:33:28.398Z,57.77
2024-03-27T08:34:28.479Z,58.64
2024-03-27T08:35:28.522Z,57.51
2024-03-27T08:36:37.368Z,56.46
2024-03-27T08:37:28.605Z,56.57
2024-03-27T08:38:28.630Z,56.89
2024-03-27T08:39:28.608Z,58.57
2024-03-27T08:40:28.638Z,56.74
2024-03-27T08:41:28.620Z,59.78
2024-03-27T08:42:28.608Z,57.67
2024-03-27T08:43:28.636Z,60.17
2024-03-27T08:44:28.619Z,58.98
2024-03-27T08:45:28.598Z,58.28
2024-03-27T08:46:28.646Z,58.09
2024-03-27T08:47:28.685Z,58.48
2024-03-27T08:48:28.648Z,56.99
2024-03-27T08:49:28.647Z,56.56
2024-03-27T08:50:28.655Z,58.69
2024-03-27T08:51:28.655Z,56.65
2024-03-27T08:52:28.659Z,56.86
2024-03-27T08:53:28.650Z,55.42
2024-03-27T08:54:28.661Z,57.84
2024-03-27T08:55:28.685Z,57.33
2024-03-27T08:56:28.694Z,58.46
2024-03-27T08:57:29.087Z,56.13
2024-03-27T08:58:28.712Z,59.62
2024-03-27T08:59:28.715Z,57.64
2024-03-27T09:00:28.739Z,59.37
2024-03-27T09:01:28.707Z,60.09
2024-03-27T09:02:28.720Z,58.59
2024-03-27T09:03:28.715Z,57.07
2024-03-27T09:04:28.713Z,59.45
2024-03-27T09:05:28.748Z,56.56
2024-03-27T09:06:28.845Z,57.84
2024-03-27T09:07:28.725Z,58.82
2024-03-27T09:08:28.727Z,59.84
2024-03-27T09:09:28.744Z,61.43
2024-03-27T09:10:28.738Z,62.91
2024-03-27T09:11:28.800Z,58.31
2024-03-27T09:12:28.818Z,57.71
2024-03-27T09:13:29.600Z,60.78
2024-03-27T09:14:28.922Z,59.81
2024-03-27T09:15:29.590Z,59.58
2024-03-27T09:16:29.012Z,59.57
2024-03-27T09:17:29.061Z,57.37
2024-03-27T09:18:29.103Z,58.93
2024-03-27T09:19:29.165Z,59.58
2024-03-27T09:20:29.196Z,61.57
2024-03-27T09:21:29.272Z,60.47
2024-03-27T09:22:29.317Z,61.08
2024-03-27T09:23:46.492Z,50.00
2024-03-27T09:24:47.525Z,50.00
2024-03-27T09:25:47.501Z,50.00
2024-03-27T09:26:47.510Z,50.00
2024-03-27T09:27:47.539Z,50.00
2024-03-27T09:28:47.486Z,50.23
2024-03-27T09:29:47.485Z,51.48
2024-03-27T09:30:47.568Z,50.00
2024-03-27T09:31:47.507Z,51.07
2024-03-27T09:32:47.503Z,51.93
2024-03-27T09:33:47.526Z,53.70
2024-03-27T09:34:47.506Z,52.24
2024-03-27T09:35:47.517Z,53.08
2024-03-27T09:36:47.532Z,51.46
2024-03-27T09:37:47.521Z,52.75
2024-03-27T09:38:47.509Z,52.66
2024-03-27T09:39:47.560Z,52.56
2024-03-27T09:40:47.522Z,59.50
2024-03-27T09:41:48.094Z,55.00
2024-03-27T09:42:47.552Z,52.53
2024-03-27T09:43:47.530Z,53.44
2024-03-27T09:44:47.531Z,52.48
2024-03-27T09:45:47.550Z,53.84
2024-03-27T09:46:49.370Z,53.01
2024-03-27T09:47:47.564Z,53.66
2024-03-27T09:48:47.591Z,55.41
2024-03-27T09:49:47.555Z,54.99
2024-03-27T09:50:47.531Z,53.88
2024-03-27T09:51:47.553Z,54.42
2024-03-27T09:52:47.543Z,54.12
2024-03-27T09:53:47.546Z,52.85
2024-03-27T09:54:47.585Z,53.78
2024-03-27T09:55:47.554Z,55.59
2024-03-27T09:56:47.545Z,54.72
2024-03-27T09:57:47.571Z,54.22
2024-03-27T09:58:47.575Z,53.90
2024-03-27T09:59:47.566Z,55.49
2024-03-27T10:00:47.561Z,53.68
2024-03-27T10:01:49.806Z,52.89
2024-03-27T10:02:47.564Z,53.08
2024-03-27T10:03:47.579Z,53.54
2024-03-27T10:04:47.562Z,53.33
2024-03-27T10:05:47.560Z,58.03
2024-03-27T10:06:47.593Z,54.92
2024-03-27T10:07:47.572Z,56.68
2024-03-27T10:08:47.565Z,60.05
2024-03-27T10:09:47.602Z,55.97
2024-03-27T10:10:47.573Z,59.03
2024-03-27T10:11:47.574Z,55.10
2024-03-27T10:12:47.581Z,52.43
2024-03-27T10:13:47.569Z,56.64
2024-03-27T10:14:47.584Z,60.85
2024-03-27T10:15:47.590Z,55.84
2024-03-27T10:16:47.569Z,56.34
2024-03-27T10:17:47.578Z,53.67
2024-03-27T10:18:47.592Z,54.66
2024-03-27T10:19:47.596Z,58.58
2024-03-27T10:20:49.943Z,54.50
2024-03-27T10:21:47.629Z,54.60
2024-03-27T10:22:47.604Z,54.59
2024-03-27T10:23:47.615Z,55.85
2024-03-27T10:24:47.628Z,56.08
2024-03-27T10:25:47.602Z,56.90
2024-03-27T10:26:47.620Z,58.01
2024-03-27T10:27:47.617Z,54.07
2024-03-27T10:28:47.601Z,59.93
2024-03-27T10:29:47.650Z,54.93
2024-03-27T10:30:47.718Z,57.95
2024-03-27T10:31:47.657Z,55.88
2024-03-27T10:32:47.665Z,59.12
2024-03-27T10:33:47.660Z,57.10
2024-03-27T10:35:01.639Z,55.22
2024-03-27T10:35:47.661Z,55.37
2024-03-27T10:36:47.682Z,55.74
2024-03-27T10:37:47.665Z,56.91
2024-03-27T10:38:47.673Z,58.52
2024-03-27T10:39:47.690Z,57.13
2024-03-27T10:40:47.683Z,56.14
2024-03-27T10:41:47.669Z,56.72
2024-03-27T10:42:47.697Z,58.45
2024-03-27T10:43:47.679Z,59.99
2024-03-27T10:44:51.130Z,58.96
2024-03-27T10:45:47.757Z,58.60
2024-03-27T10:46:47.716Z,59.05
2024-03-27T10:47:47.695Z,58.69
2024-03-27T10:48:47.713Z,59.26
2024-03-27T10:49:48.626Z,60.07
2024-03-27T10:50:48.004Z,60.77
2024-03-27T10:51:47.735Z,59.01
2024-03-27T10:52:47.697Z,59.66
2024-03-27T10:53:47.691Z,59.49
2024-03-27T10:54:47.713Z,59.08
2024-03-27T10:55:48.142Z,57.03
2024-03-27T10:56:47.706Z,58.75
2024-03-27T10:57:47.714Z,57.16
2024-03-27T10:58:47.698Z,57.31
2024-03-27T10:59:47.711Z,58.81
2024-03-27T11:00:47.744Z,55.95
2024-03-27T11:01:47.780Z,56.65
2024-03-27T11:02:47.850Z,55.26
2024-03-27T11:03:47.897Z,59.09
2024-03-27T11:04:47.949Z,59.33
2024-03-27T11:05:47.994Z,62.62
2024-03-27T11:06:48.072Z,57.86
2024-03-27T11:07:48.097Z,58.07
2024-03-27T11:08:48.154Z,58.74
2024-03-27T11:09:48.224Z,66.98
2024-03-27T11:10:48.263Z,58.94
2024-03-27T11:11:48.312Z,59.16
2024-03-27T11:12:48.425Z,59.33
2024-03-27T11:13:48.466Z,61.40
2024-03-27T11:14:48.548Z,59.69
2024-03-27T11:15:48.658Z,62.21
2024-03-27T11:16:48.725Z,60.94
2024-03-27T11:17:48.782Z,60.07
2024-03-27T11:18:48.944Z,60.28
2024-03-27T11:19:48.935Z,57.80
2024-03-27T11:20:49.019Z,59.24
2024-03-27T11:21:49.121Z,60.04
2024-03-27T11:22:49.167Z,60.86
2024-03-27T11:23:49.250Z,58.09
2024-03-27T11:24:49.383Z,60.80
2024-03-27T11:25:49.406Z,59.54
2024-03-27T11:26:49.475Z,61.62
2024-03-27T11:27:49.588Z,59.80
2024-03-27T11:28:49.626Z,57.33
2024-03-27T11:29:49.696Z,59.35
2024-03-27T11:30:49.820Z,61.58
2024-03-27T11:31:49.842Z,65.78
2024-03-27T11:32:52.639Z,61.63
2024-03-27T11:33:49.963Z,60.39
2024-03-27T11:34:49.939Z,60.35
2024-03-27T11:35:49.916Z,60.77
2024-03-27T11:36:49.949Z,62.19
2024-03-27T11:37:49.917Z,61.73
2024-03-27T11:38:49.931Z,65.95
2024-03-27T11:39:50.006Z,56.66
2024-03-27T11:40:49.971Z,63.82
2024-03-27T11:41:49.963Z,62.33
2024-03-27T11:42:50.001Z,62.16
2024-03-27T11:43:49.970Z,63.31
2024-03-27T11:44:49.970Z,60.27
2024-03-27T11:45:49.982Z,61.36
2024-03-27T11:46:50.150Z,61.02
2024-03-27T11:47:49.981Z,60.82
2024-03-27T11:48:49.975Z,58.11
2024-03-27T11:49:49.975Z,61.66
2024-03-27T11:50:49.995Z,61.13
2024-03-27T11:51:50.091Z,60.85
2024-03-27T11:52:49.992Z,61.37
2024-03-27T11:53:50.008Z,59.75
2024-03-27T11:54:50.033Z,60.19
2024-03-27T11:55:49.992Z,60.03
2024-03-27T11:56:49.990Z,62.04
2024-03-27T11:57:50.014Z,63.35
2024-03-27T11:58:50.064Z,59.03
2024-03-27T11:59:50.018Z,61.59
2024-03-27T12:00:50.049Z,61.78
2024-03-27T12:01:50.049Z,59.48
2024-03-27T12:02:50.118Z,62.15
2024-03-27T12:03:50.164Z,62.19
2024-03-27T12:04:50.211Z,61.67
2024-03-27T12:05:50.265Z,58.31
2024-03-27T12:06:51.192Z,61.10
2024-03-27T12:07:50.361Z,62.27
2024-03-27T12:08:50.403Z,59.43
2024-03-27T12:09:50.462Z,61.96
2024-03-27T12:10:50.512Z,59.45
2024-03-27T12:11:50.566Z,59.89
2024-03-27T12:12:50.621Z,61.07
2024-03-27T12:13:50.677Z,62.37
2024-03-27T12:14:50.720Z,60.21
2024-03-27T12:15:50.812Z,62.03
2024-03-27T12:16:50.840Z,60.70
2024-03-27T12:17:50.895Z,62.86
2024-03-27T12:18:51.004Z,63.98
2024-03-27T12:19:51.008Z,61.12
2024-03-27T12:20:51.071Z,58.88
2024-03-27T12:21:51.179Z,63.69
2024-03-27T12:22:51.374Z,63.58
2024-03-27T12:23:51.241Z,64.62
2024-03-27T12:24:51.335Z,59.42
2024-03-27T12:25:51.339Z,60.06
2024-03-27T12:26:51.407Z,60.49
2024-03-27T12:27:51.487Z,60.38
2024-03-27T12:28:51.551Z,63.16
2024-03-27T12:29:51.611Z,61.24
2024-03-27T12:30:51.699Z,61.21
2024-03-27T12:31:51.707Z,63.07
2024-03-27T12:32:51.764Z,60.27
2024-03-27T12:33:51.854Z,59.34
2024-03-27T12:34:51.895Z,59.99
2024-03-27T12:35:51.982Z,61.12
2024-03-27T12:36:52.118Z,61.14
2024-03-27T12:37:52.117Z,60.22
2024-03-27T12:38:52.204Z,59.51
2024-03-27T12:39:52.287Z,60.86
2024-03-27T12:40:52.322Z,61.66
2024-03-27T12:41:52.404Z,60.65
2024-03-27T12:42:52.491Z,60.34
2024-03-27T12:43:52.552Z,63.01
2024-03-27T12:44:52.642Z,61.83
2024-03-27T12:45:52.709Z,63.35
2024-03-27T12:46:52.763Z,58.46
2024-03-27T12:47:52.840Z,61.43
2024-03-27T12:48:52.902Z,62.31
2024-03-27T12:49:52.959Z,59.38
2024-03-27T12:50:53.034Z,60.26
2024-03-27T12:51:53.108Z,61.39
2024-03-27T12:52:53.170Z,61.92
2024-03-27T12:53:53.253Z,59.57
2024-03-27T12:54:53.356Z,63.60
2024-03-27T12:55:53.376Z,62.03
2024-03-27T12:56:53.441Z,61.22
2024-03-27T12:57:53.560Z,63.82
2024-03-27T12:58:53.587Z,62.08
2024-03-27T12:59:53.658Z,62.50
2024-03-27T13:00:53.762Z,62.18
2024-03-27T13:01:53.823Z,64.85
2024-03-27T13:02:53.865Z,59.55
2024-03-27T13:03:54.112Z,61.99
2024-03-27T13:04:54.004Z,62.18
2024-03-27T13:05:54.093Z,61.36
2024-03-27T13:06:54.178Z,60.45
2024-03-27T13:07:54.231Z,60.34
2024-03-27T13:08:54.298Z,62.30
2024-03-27T13:09:54.455Z,59.92
2024-03-27T13:10:54.465Z,63.00
2024-03-27T13:11:54.517Z,60.93
2024-03-27T13:12:54.629Z,62.68
2024-03-27T13:13:54.675Z,60.55
2024-03-27T13:14:54.752Z,60.68
2024-03-27T13:15:54.840Z,61.01
2024-03-27T13:16:54.893Z,62.72
2024-03-27T13:17:55.697Z,61.28
2024-03-27T13:18:55.065Z,64.25
2024-03-27T13:19:55.098Z,64.14
2024-03-27T13:20:55.150Z,63.67
2024-03-27T13:21:55.204Z,61.79
2024-03-27T13:22:55.254Z,62.52
2024-03-27T13:23:55.308Z,60.70
2024-03-27T13:24:55.370Z,60.74
2024-03-27T13:25:57.157Z,61.63
2024-03-27T13:26:55.438Z,62.65
2024-03-27T13:27:55.413Z,65.68
2024-03-27T13:28:55.418Z,61.84
2024-03-27T13:29:55.429Z,59.93
2024-03-27T13:30:55.443Z,60.05
2024-03-27T13:31:55.416Z,62.45
2024-03-27T13:32:55.420Z,61.82
2024-03-27T13:33:55.496Z,62.14
2024-03-27T13:34:55.421Z,61.43
2024-03-27T13:35:55.450Z,59.35
2024-03-27T13:36:55.477Z,63.20
2024-03-27T13:37:55.453Z,60.14
2024-03-27T13:38:55.451Z,63.46
2024-03-27T13:39:55.466Z,62.30
2024-03-27T13:40:55.448Z,61.63
2024-03-27T13:41:55.446Z,59.24
2024-03-27T13:42:55.529Z,60.00
2024-03-27T13:43:55.471Z,64.39
2024-03-27T13:44:55.454Z,61.69
2024-03-27T13:45:55.491Z,60.15
2024-03-27T13:46:55.454Z,64.23